createdAt,value
2023-05-05T00:00:22.035Z,14.63
2023-05-05T00:03:11.353Z,14.57
2023-05-05T00:05:40.654Z,14.50
2023-05-05T00:08:09.645Z,14.43
2023-05-05T00:10:40.355Z,14.35
2023-05-05T00:13:10.424Z,14.29
2023-05-05T00:15:41.551Z,14.18
2023-05-05T00:18:13.268Z,14.07
2023-05-05T00:20:41.006Z,13.96
2023-05-05T00:23:08.168Z,13.87
2023-05-05T00:25:35.756Z,13.82
2023-05-05T00:28:02.771Z,13.78
2023-05-05T00:30:30.236Z,13.75
2023-05-05T00:32:57.432Z,13.71
2023-05-05T00:35:24.928Z,13.69
2023-05-05T00:37:52.019Z,13.67
2023-05-05T00:40:19.348Z,13.65
2023-05-05T00:42:52.756Z,13.65
2023-05-05T00:45:21.313Z,13.62
2023-05-05T00:48:02.573Z,13.59
2023-05-05T00:50:32.536Z,13.59
2023-05-05T00:53:06.576Z,13.63
2023-05-05T00:55:37.737Z,13.63
2023-05-05T00:58:07.431Z,13.64
2023-05-05T01:00:36.105Z,13.61
2023-05-05T01:03:06.941Z,13.59
2023-05-05T01:05:57.528Z,13.54
2023-05-05T01:08:39.012Z,13.53
2023-05-05T01:11:28.087Z,13.53
2023-05-05T01:14:20.276Z,13.54
2023-05-05T01:17:09.578Z,13.56
2023-05-05T01:19:57.002Z,13.55
2023-05-05T01:22:42.568Z,13.52
2023-05-05T01:25:27.102Z,13.50
2023-05-05T01:29:04.289Z,13.46
2023-05-05T01:31:55.084Z,13.42
2023-05-05T01:34:37.052Z,13.41
2023-05-05T01:37:16.712Z,13.39
2023-05-05T01:39:50.094Z,13.34
2023-05-05T01:42:20.725Z,13.32
2023-05-05T01:44:52.224Z,13.30
2023-05-05T01:47:23.649Z,13.31
2023-05-05T01:49:52.467Z,13.30
2023-05-05T01:52:21.856Z,13.30
2023-05-05T01:54:52.650Z,13.29
2023-05-05T01:57:23.194Z,13.24
2023-05-05T01:59:53.273Z,13.21
2023-05-05T02:02:23.325Z,13.17
2023-05-05T02:04:54.685Z,13.16
2023-05-05T02:07:23.746Z,13.21
2023-05-05T02:09:53.373Z,13.24
2023-05-05T02:12:22.689Z,13.20
2023-05-05T02:14:52.332Z,13.17
2023-05-05T02:17:23.267Z,13.18
2023-05-05T02:19:53.204Z,13.15
2023-05-05T02:22:20.810Z,13.11
2023-05-05T02:24:49.219Z,13.07
2023-05-05T02:27:20.967Z,13.02
2023-05-05T02:29:54.352Z,12.98
2023-05-05T02:32:33.744Z,12.99
2023-05-05T02:35:18.223Z,13.01
2023-05-05T02:37:51.651Z,13.01
2023-05-05T02:40:26.544Z,12.95
2023-05-05T02:42:57.453Z,12.89
2023-05-05T02:45:27.837Z,12.84
2023-05-05T02:47:57.468Z,12.80
2023-05-05T02:50:24.832Z,12.76
2023-05-05T02:52:51.905Z,12.71
2023-05-05T02:55:19.802Z,12.64
2023-05-05T02:58:11.699Z,12.59
2023-05-05T03:00:53.698Z,12.55
2023-05-05T03:03:46.421Z,12.56
2023-05-05T03:06:21.471Z,12.55
2023-05-05T03:09:16.124Z,12.53
2023-05-05T03:12:20.464Z,12.48
2023-05-05T03:14:54.408Z,12.45
2023-05-05T03:17:24.689Z,12.43
2023-05-05T03:19:52.753Z,12.40
2023-05-05T03:22:20.197Z,12.37
2023-05-05T03:24:54.845Z,12.37
2023-05-05T03:27:25.922Z,12.36
2023-05-05T03:29:56.130Z,12.35
2023-05-05T03:32:26.609Z,12.33
2023-05-05T03:34:56.692Z,12.29
2023-05-05T03:37:26.451Z,12.25
2023-05-05T03:39:54.824Z,12.22
2023-05-05T03:42:24.428Z,12.23
2023-05-05T03:44:56.834Z,12.26
2023-05-05T03:47:26.462Z,12.32
2023-05-05T03:49:56.291Z,12.32
2023-05-05T03:52:25.801Z,12.30
2023-05-05T03:54:55.145Z,12.30
2023-05-05T03:57:24.983Z,12.30
2023-05-05T03:59:54.558Z,12.25
2023-05-05T04:02:23.753Z,12.24
2023-05-05T04:04:53.176Z,12.25
2023-05-05T04:07:24.884Z,12.34
2023-05-05T04:09:57.508Z,12.37
2023-05-05T04:12:28.187Z,12.35
2023-05-05T04:14:58.131Z,12.29
2023-05-05T04:17:27.419Z,12.25
2023-05-05T04:19:55.317Z,12.22
2023-05-05T04:22:26.966Z,12.22
2023-05-05T04:24:57.215Z,12.23
2023-05-05T04:27:30.039Z,12.23
2023-05-05T04:29:59.199Z,12.23
2023-05-05T04:32:29.061Z,12.27
2023-05-05T04:34:57.756Z,12.25
2023-05-05T04:37:28.960Z,12.31
2023-05-05T04:39:57.369Z,12.32
2023-05-05T04:42:24.879Z,12.29
2023-05-05T04:44:54.811Z,12.32
2023-05-05T04:47:24.390Z,12.36
2023-05-05T04:49:56.509Z,12.38
2023-05-05T04:52:24.459Z,12.38
2023-05-05T04:54:51.950Z,12.44
2023-05-05T04:57:20.122Z,12.42
2023-05-05T04:59:47.299Z,12.51
2023-05-05T05:02:14.850Z,12.56
2023-05-05T05:04:42.113Z,12.59
2023-05-05T05:07:09.628Z,12.60
2023-05-05T05:09:38.065Z,12.65
2023-05-05T05:12:07.408Z,12.75
2023-05-05T05:14:40.612Z,12.81
2023-05-05T05:17:08.122Z,12.85
2023-05-05T05:19:37.553Z,12.91
2023-05-05T05:22:07.959Z,13.02
2023-05-05T05:24:36.899Z,13.09
2023-05-05T05:27:09.848Z,13.13
2023-05-05T05:29:38.045Z,13.20
2023-05-05T05:32:05.783Z,13.34
2023-05-05T05:34:33.069Z,13.45
2023-05-05T05:37:00.581Z,13.51
2023-05-05T05:39:27.647Z,13.57
2023-05-05T05:41:55.227Z,13.61
2023-05-05T05:44:22.749Z,13.61
2023-05-05T05:46:50.008Z,13.66
2023-05-05T05:49:17.328Z,13.64
2023-05-05T05:51:44.738Z,13.77
2023-05-05T05:54:12.065Z,13.85
2023-05-05T05:56:40.286Z,13.86
2023-05-05T05:59:10.752Z,13.88
2023-05-05T06:01:40.463Z,13.86
2023-05-05T06:04:08.136Z,13.89
2023-05-05T06:06:35.658Z,13.95
2023-05-05T06:09:03.613Z,13.96
2023-05-05T06:11:31.077Z,13.97
2023-05-05T06:13:58.729Z,14.00
2023-05-05T06:16:26.214Z,14.03
2023-05-05T06:18:53.470Z,14.05
2023-05-05T06:21:21.006Z,14.08
2023-05-05T06:23:48.171Z,14.17
2023-05-05T06:26:15.829Z,14.24
2023-05-05T06:28:42.922Z,14.30
2023-05-05T06:31:12.961Z,14.34
2023-05-05T06:33:40.056Z,14.44
2023-05-05T06:36:07.806Z,14.52
2023-05-05T06:38:35.131Z,14.66
2023-05-05T06:41:02.748Z,14.78
2023-05-05T06:43:29.880Z,14.88
2023-05-05T06:45:57.212Z,14.93
2023-05-05T06:48:24.499Z,15.03
2023-05-05T06:50:52.097Z,15.16
2023-05-05T06:53:19.167Z,15.23
2023-05-05T06:55:48.189Z,15.34
2023-05-05T06:58:15.300Z,15.41
2023-05-05T07:00:42.837Z,15.40
2023-05-05T07:03:10.095Z,15.50
2023-05-05T07:05:37.691Z,15.55
2023-05-05T07:08:05.519Z,15.65
2023-05-05T07:10:33.640Z,15.75
2023-05-05T07:13:01.070Z,15.83
2023-05-05T07:15:29.807Z,15.79
2023-05-05T07:17:58.248Z,15.96
2023-05-05T07:20:26.194Z,16.09
2023-05-05T07:22:53.306Z,16.14
2023-05-05T07:25:21.953Z,16.14
2023-05-05T07:27:49.186Z,16.15
2023-05-05T07:30:18.660Z,16.33
2023-05-05T07:32:46.162Z,16.39
2023-05-05T07:35:13.852Z,16.38
2023-05-05T07:37:41.020Z,16.49
2023-05-05T07:40:09.361Z,16.50
2023-05-05T07:42:36.667Z,16.52
2023-05-05T07:45:05.435Z,16.68
2023-05-05T07:47:33.304Z,16.77
2023-05-05T07:50:01.400Z,16.91
2023-05-05T07:52:44.207Z,17.01
2023-05-05T07:55:15.742Z,17.12
2023-05-05T07:57:43.007Z,17.22
2023-05-05T08:00:11.604Z,17.31
2023-05-05T08:02:39.249Z,17.36
2023-05-05T08:05:07.595Z,17.48
2023-05-05T08:07:36.652Z,17.58
2023-05-05T08:10:04.365Z,17.56
2023-05-05T08:12:31.592Z,17.65
2023-05-05T08:14:59.232Z,17.72
2023-05-05T08:17:27.154Z,17.76
2023-05-05T08:19:54.723Z,17.84
2023-05-05T08:22:22.721Z,17.94
2023-05-05T08:24:50.067Z,18.04
2023-05-05T08:27:17.260Z,18.13
2023-05-05T08:29:44.694Z,18.23
2023-05-05T08:32:11.813Z,18.29
2023-05-05T08:34:39.297Z,18.34
2023-05-05T08:37:07.166Z,18.41
2023-05-05T08:39:34.999Z,18.46
2023-05-05T08:42:03.549Z,18.53
2023-05-05T08:44:31.126Z,18.60
2023-05-05T08:47:02.054Z,18.66
2023-05-05T08:49:40.520Z,18.73
2023-05-05T08:52:11.855Z,18.84
2023-05-05T08:54:50.353Z,18.92
2023-05-05T08:57:28.561Z,18.97
2023-05-05T08:59:58.935Z,19.06
2023-05-05T09:02:30.060Z,19.19
2023-05-05T09:04:57.785Z,19.22
2023-05-05T09:07:25.571Z,19.30
2023-05-05T09:09:53.529Z,19.35
2023-05-05T09:12:22.214Z,19.45
2023-05-05T09:14:49.589Z,19.49
2023-05-05T09:17:26.921Z,19.57
2023-05-05T09:20:07.458Z,19.65
2023-05-05T09:22:41.447Z,19.70
2023-05-05T09:25:17.907Z,19.79
2023-05-05T09:27:48.422Z,19.87
2023-05-05T09:30:23.463Z,19.91
2023-05-05T09:32:55.855Z,19.92
2023-05-05T09:35:23.729Z,19.85
2023-05-05T09:37:51.155Z,19.91
2023-05-05T09:40:20.536Z,19.98
2023-05-05T09:42:48.552Z,20.14
2023-05-05T09:45:19.298Z,20.28
2023-05-05T09:47:48.141Z,20.38
2023-05-05T09:50:19.021Z,20.46
2023-05-05T09:53:01.684Z,20.58
2023-05-05T09:55:33.539Z,20.63
2023-05-05T09:58:20.631Z,20.75
2023-05-05T10:00:48.155Z,20.86
2023-05-05T10:03:16.138Z,20.97
2023-05-05T10:06:09.942Z,21.06
2023-05-05T10:08:37.116Z,21.07
2023-05-05T10:11:06.930Z,21.12
2023-05-05T10:13:42.095Z,21.16
2023-05-05T10:16:13.252Z,21.18
2023-05-05T10:18:46.720Z,21.21
2023-05-05T10:21:21.691Z,21.14
2023-05-05T10:23:58.623Z,21.18
2023-05-05T10:26:28.413Z,21.33
2023-05-05T10:28:56.966Z,21.35
2023-05-05T10:31:48.895Z,21.28
2023-05-05T10:34:37.840Z,21.48
2023-05-05T10:37:07.259Z,21.56
2023-05-05T10:39:37.662Z,21.65
2023-05-05T10:42:05.336Z,21.73
2023-05-05T10:44:33.389Z,21.75
2023-05-05T10:47:02.740Z,21.83
2023-05-05T10:50:02.576Z,21.91
2023-05-05T10:53:15.472Z,22.02
2023-05-05T10:55:58.806Z,22.09
2023-05-05T10:58:59.642Z,22.14
2023-05-05T11:01:36.519Z,22.05
2023-05-05T11:04:24.025Z,22.09
2023-05-05T11:10:06.729Z,22.09
2023-05-05T11:13:00.155Z,22.20
2023-05-05T11:15:34.471Z,22.09
2023-05-05T11:18:05.021Z,22.18
2023-05-05T11:20:36.840Z,22.25
2023-05-05T11:23:21.989Z,22.36
2023-05-05T11:25:51.429Z,22.44
2023-05-05T11:28:25.668Z,22.19
2023-05-05T11:30:56.934Z,22.26
2023-05-05T11:33:38.688Z,22.23
2023-05-05T11:36:14.688Z,22.46
2023-05-05T11:39:22.208Z,22.60
2023-05-05T11:42:23.592Z,22.73
2023-05-05T11:44:51.321Z,22.70
2023-05-05T11:47:18.577Z,22.88
2023-05-05T11:49:46.941Z,23.00
2023-05-05T11:52:15.141Z,23.08
2023-05-05T11:54:47.949Z,23.08
2023-05-05T11:57:20.222Z,23.17
2023-05-05T11:59:57.023Z,23.21
2023-05-05T12:02:26.642Z,23.12
2023-05-05T12:04:54.512Z,23.11
2023-05-05T12:07:25.011Z,23.13
2023-05-05T12:09:52.966Z,23.20
2023-05-05T12:12:21.143Z,23.27
2023-05-05T12:14:53.037Z,23.09
2023-05-05T12:17:23.035Z,23.21
2023-05-05T12:19:54.162Z,23.32
2023-05-05T12:22:26.732Z,23.37
2023-05-05T12:24:58.941Z,23.43
2023-05-05T12:27:28.181Z,23.24
2023-05-05T12:29:57.326Z,23.34
2023-05-05T12:32:28.320Z,23.43
2023-05-05T12:34:59.388Z,23.54
2023-05-05T12:37:27.743Z,23.55
2023-05-05T12:39:57.373Z,23.58
2023-05-05T12:42:24.624Z,23.59
2023-05-05T12:44:52.222Z,23.71
2023-05-05T12:47:45.943Z,23.79
2023-05-05T12:50:13.032Z,23.73
2023-05-05T12:52:45.324Z,23.77
2023-05-05T12:55:13.035Z,23.89
2023-05-05T12:58:04.683Z,23.88
2023-05-05T13:00:31.975Z,23.96
2023-05-05T13:02:59.310Z,23.95
2023-05-05T13:05:33.969Z,23.99
2023-05-05T13:08:01.143Z,24.04
2023-05-05T13:10:31.401Z,23.99
2023-05-05T13:12:58.785Z,24.03
2023-05-05T13:15:26.188Z,24.01
2023-05-05T13:18:01.339Z,24.06
2023-05-05T13:20:28.598Z,23.95
2023-05-05T13:22:55.879Z,24.07
2023-05-05T13:25:22.910Z,24.13
2023-05-05T13:27:50.335Z,24.13
2023-05-05T13:30:17.348Z,24.21
2023-05-05T13:32:44.634Z,24.29
2023-05-05T13:35:13.851Z,24.38
2023-05-05T13:37:44.322Z,24.39
2023-05-05T13:40:13.384Z,24.35
2023-05-05T13:42:40.638Z,24.29
2023-05-05T13:45:08.428Z,24.15
2023-05-05T13:47:36.224Z,24.29
2023-05-05T13:50:03.488Z,24.26
2023-05-05T13:52:32.128Z,24.23
2023-05-05T13:55:00.922Z,24.21
2023-05-05T13:57:28.298Z,24.40
2023-05-05T13:59:55.276Z,24.44
2023-05-05T14:02:22.537Z,24.44
2023-05-05T14:04:49.537Z,24.51
2023-05-05T14:07:16.911Z,24.59
2023-05-05T14:09:43.842Z,24.60
2023-05-05T14:12:11.032Z,24.61
2023-05-05T14:14:38.091Z,24.54
2023-05-05T14:17:05.400Z,24.64
2023-05-05T14:19:32.487Z,24.54
2023-05-05T14:21:59.652Z,24.49
2023-05-05T14:24:27.255Z,24.59
2023-05-05T14:26:54.456Z,24.52
2023-05-05T14:29:21.389Z,24.52
2023-05-05T14:31:48.548Z,24.61
2023-05-05T14:34:15.560Z,24.68
2023-05-05T14:36:42.761Z,24.67
2023-05-05T14:39:09.709Z,24.78
2023-05-05T14:41:36.874Z,24.87
2023-05-05T14:44:03.972Z,24.91
2023-05-05T14:46:31.876Z,24.97
2023-05-05T14:48:59.080Z,24.94
2023-05-05T14:51:26.336Z,24.94
2023-05-05T14:53:53.336Z,24.97
2023-05-05T14:56:22.840Z,24.95
2023-05-05T14:58:50.171Z,24.88
2023-05-05T15:01:17.509Z,24.80
2023-05-05T15:03:44.599Z,24.68
2023-05-05T15:06:12.261Z,24.64
2023-05-05T15:08:39.244Z,24.70
2023-05-05T15:11:06.974Z,24.73
2023-05-05T15:13:33.947Z,24.75
2023-05-05T15:16:01.447Z,24.74
2023-05-05T15:18:28.470Z,24.79
2023-05-05T15:20:55.725Z,24.83
2023-05-05T15:23:22.690Z,24.89
2023-05-05T15:25:50.020Z,24.94
2023-05-05T15:28:17.497Z,24.94
2023-05-05T15:30:45.297Z,24.95
2023-05-05T15:33:12.203Z,24.99
2023-05-05T15:35:39.396Z,25.07
2023-05-05T15:38:06.377Z,25.09
2023-05-05T15:40:33.833Z,25.13
2023-05-05T15:43:00.862Z,25.26
2023-05-05T15:45:28.137Z,25.49
2023-05-05T15:47:55.034Z,25.88
2023-05-05T15:50:23.395Z,26.25
2023-05-05T15:52:50.433Z,26.51
2023-05-05T15:55:17.796Z,26.66
2023-05-05T15:57:44.757Z,26.83
2023-05-05T16:00:13.080Z,26.88
2023-05-05T16:02:40.209Z,26.83
2023-05-05T16:05:08.298Z,26.72
2023-05-05T16:07:35.519Z,26.67
2023-05-05T16:10:03.750Z,26.47
2023-05-05T16:12:31.131Z,26.29
2023-05-05T16:14:58.771Z,25.93
2023-05-05T16:17:25.826Z,25.68
2023-05-05T16:19:53.134Z,25.47
2023-05-05T16:22:21.070Z,25.30
2023-05-05T16:24:48.375Z,25.07
2023-05-05T16:27:15.484Z,24.86
2023-05-05T16:29:42.718Z,24.84
2023-05-05T16:32:09.640Z,24.78
2023-05-05T16:34:36.826Z,24.68
2023-05-05T16:37:03.884Z,24.64
2023-05-05T16:39:32.982Z,24.57
2023-05-05T16:41:59.990Z,24.45
2023-05-05T16:44:27.317Z,24.36
2023-05-05T16:46:54.268Z,24.31
2023-05-05T16:49:24.128Z,24.26
2023-05-05T16:51:53.507Z,24.25
2023-05-05T16:54:20.773Z,24.20
2023-05-05T16:56:47.686Z,24.17
2023-05-05T16:59:18.347Z,24.08
2023-05-05T17:01:45.406Z,24.02
2023-05-05T17:04:12.532Z,23.96
2023-05-05T17:06:39.528Z,23.80
2023-05-05T17:09:06.768Z,23.80
2023-05-05T17:11:33.753Z,23.72
2023-05-05T17:14:01.667Z,23.74
2023-05-05T17:16:28.783Z,23.68
2023-05-05T17:18:55.985Z,23.66
2023-05-05T17:21:23.528Z,23.64
2023-05-05T17:23:50.977Z,23.63
2023-05-05T17:26:17.982Z,23.58
2023-05-05T17:28:45.242Z,23.54
2023-05-05T17:31:12.651Z,23.49
2023-05-05T17:33:40.056Z,23.43
2023-05-05T17:36:07.380Z,23.38
2023-05-05T17:38:34.760Z,23.31
2023-05-05T17:41:02.122Z,23.27
2023-05-05T17:43:29.359Z,23.21
2023-05-05T17:45:56.328Z,23.15
2023-05-05T17:48:23.675Z,23.09
2023-05-05T17:50:50.647Z,23.00
2023-05-05T17:53:17.885Z,22.95
2023-05-05T17:55:46.156Z,22.88
2023-05-05T17:58:13.824Z,22.83
2023-05-05T18:00:40.969Z,22.78
2023-05-05T18:03:08.323Z,22.72
2023-05-05T18:05:35.778Z,22.65
2023-05-05T18:08:03.282Z,22.59
2023-05-05T18:10:30.421Z,22.54
2023-05-05T18:12:57.875Z,22.46
2023-05-05T18:15:25.205Z,22.43
2023-05-05T18:17:53.849Z,22.36
2023-05-05T18:20:20.918Z,22.31
2023-05-05T18:22:49.200Z,22.25
2023-05-05T18:25:16.182Z,22.20
2023-05-05T18:27:44.498Z,22.16
2023-05-05T18:30:12.402Z,22.09
2023-05-05T18:32:39.565Z,22.07
2023-05-05T18:35:07.376Z,22.02
2023-05-05T18:37:35.025Z,21.99
2023-05-05T18:40:01.947Z,21.95
2023-05-05T18:42:29.275Z,21.91
2023-05-05T18:44:56.240Z,21.89
2023-05-05T18:47:23.681Z,21.85
2023-05-05T18:49:50.675Z,21.83
2023-05-05T18:52:17.970Z,21.79
2023-05-05T18:54:44.914Z,21.76
2023-05-05T18:57:12.282Z,21.73
2023-05-05T18:59:39.294Z,21.69
2023-05-05T19:02:07.963Z,21.66
2023-05-05T19:04:38.739Z,21.64
2023-05-05T19:07:06.034Z,21.63
2023-05-05T19:09:33.047Z,21.54
2023-05-05T19:12:00.194Z,21.51
2023-05-05T19:14:27.276Z,21.46
2023-05-05T19:16:55.949Z,21.44
2023-05-05T19:19:23.196Z,21.42
2023-05-05T19:21:50.734Z,21.42
2023-05-05T19:24:17.726Z,21.40
2023-05-05T19:26:44.969Z,21.34
2023-05-05T19:29:13.010Z,21.33
2023-05-05T19:31:40.323Z,21.33
2023-05-05T19:34:07.547Z,21.28
2023-05-05T19:36:34.858Z,21.22
2023-05-05T19:39:04.347Z,21.21
2023-05-05T19:41:31.774Z,21.20
2023-05-05T19:43:58.792Z,21.20
2023-05-05T19:46:26.721Z,21.20
2023-05-05T19:48:53.904Z,21.18
2023-05-05T19:51:21.237Z,21.15
2023-05-05T19:53:48.398Z,21.14
2023-05-05T19:56:16.996Z,21.13
2023-05-05T19:58:57.652Z,21.09
2023-05-05T20:01:25.982Z,21.04
2023-05-05T20:03:54.944Z,21.02
2023-05-05T20:06:23.008Z,20.99
2023-05-05T20:08:49.990Z,21.01
2023-05-05T20:11:17.837Z,20.96
2023-05-05T20:13:44.912Z,20.92
2023-05-05T20:16:12.337Z,20.88
2023-05-05T20:18:40.244Z,20.82
2023-05-05T20:21:07.428Z,20.79
2023-05-05T20:23:34.342Z,20.81
2023-05-05T20:26:01.763Z,20.77
2023-05-05T20:28:31.485Z,20.68
2023-05-05T20:30:58.677Z,20.61
2023-05-05T20:33:25.903Z,20.55
2023-05-05T20:35:53.081Z,20.49
2023-05-05T20:38:20.080Z,20.50
2023-05-05T20:40:47.320Z,20.48
2023-05-05T20:43:14.327Z,20.48
2023-05-05T20:45:41.533Z,20.42
2023-05-05T20:48:11.186Z,20.34
2023-05-05T20:50:39.279Z,20.33
2023-05-05T20:53:11.787Z,20.32
2023-05-05T20:55:38.977Z,20.31
2023-05-05T20:58:09.198Z,20.33
2023-05-05T21:00:36.583Z,20.28
2023-05-05T21:03:04.962Z,20.23
2023-05-05T21:05:32.077Z,20.16
2023-05-05T21:08:00.881Z,20.13
2023-05-05T21:10:33.110Z,20.14
2023-05-05T21:13:02.677Z,20.18
2023-05-05T21:15:29.807Z,20.22
2023-05-05T21:17:57.365Z,20.20
2023-05-05T21:20:24.472Z,20.19
2023-05-05T21:22:51.709Z,20.18
2023-05-05T21:25:21.680Z,20.10
2023-05-05T21:27:50.095Z,20.04
2023-05-05T21:30:17.619Z,20.02
2023-05-05T21:32:45.671Z,20.00
2023-05-05T21:35:13.741Z,19.99
2023-05-05T21:37:42.476Z,20.00
2023-05-05T21:40:13.504Z,19.98
2023-05-05T21:42:42.709Z,19.97
2023-05-05T21:45:12.464Z,19.95
2023-05-05T21:47:39.868Z,19.91
2023-05-05T21:50:07.773Z,19.90
2023-05-05T21:52:35.258Z,19.86
2023-05-05T21:55:02.794Z,19.86
2023-05-05T21:57:29.954Z,19.84
2023-05-05T21:59:56.869Z,19.82
2023-05-05T22:02:24.287Z,19.81
2023-05-05T22:04:51.980Z,19.78
2023-05-05T22:07:19.594Z,19.76
2023-05-05T22:09:46.704Z,19.74
2023-05-05T22:12:13.982Z,19.72
2023-05-05T22:14:40.993Z,19.71
2023-05-05T22:17:08.784Z,19.73
2023-05-05T22:19:36.058Z,19.72
2023-05-05T22:22:03.619Z,19.75
2023-05-05T22:24:30.564Z,19.76
2023-05-05T22:26:58.420Z,19.77
2023-05-05T22:29:25.677Z,19.77
2023-05-05T22:31:53.262Z,19.76
2023-05-05T22:34:21.956Z,19.76
2023-05-05T22:36:49.927Z,19.75
2023-05-05T22:39:18.597Z,19.74
2023-05-05T22:41:47.147Z,19.74
2023-05-05T22:44:14.234Z,19.71
2023-05-05T22:46:42.432Z,19.72
2023-05-05T22:49:09.568Z,19.71
2023-05-05T22:51:36.734Z,19.68
2023-05-05T22:54:04.104Z,19.67
2023-05-05T22:56:31.280Z,19.62
2023-05-05T22:58:58.249Z,19.61
2023-05-05T23:01:26.209Z,19.55
2023-05-05T23:03:53.435Z,19.54
2023-05-05T23:06:20.853Z,19.52
2023-05-05T23:08:49.278Z,19.50
2023-05-05T23:11:16.917Z,19.48
2023-05-05T23:13:43.967Z,19.48
2023-05-05T23:16:11.607Z,19.47
2023-05-05T23:18:38.866Z,19.46
2023-05-05T23:21:06.138Z,19.46
2023-05-05T23:23:33.656Z,19.50
2023-05-05T23:26:01.475Z,19.51
2023-05-05T23:28:28.428Z,19.50
2023-05-05T23:30:55.912Z,19.49
2023-05-05T23:33:23.075Z,19.47
2023-05-05T23:35:50.367Z,19.47
2023-05-05T23:38:17.653Z,19.48
2023-05-05T23:40:44.850Z,19.47
2023-05-05T23:43:12.084Z,19.48
2023-05-05T23:45:39.295Z,19.46
2023-05-05T23:48:06.431Z,19.47
2023-05-05T23:50:33.609Z,19.47
2023-05-05T23:53:00.470Z,19.44
2023-05-05T23:55:28.042Z,19.44
2023-05-05T23:57:54.935Z,19.47
